sensor_id;sensor_type;location;lat;lon;timestamp;temperature;humidity
66213;SHT31;53015;50.046;8.238;2023-04-25T00:01:15;9.17;91.74
66213;SHT31;53015;50.046;8.238;2023-04-25T00:03:41;9.13;91.54
66213;SHT31;53015;50.046;8.238;2023-04-25T00:06:06;9.07;91.79
66213;SHT31;53015;50.046;8.238;2023-04-25T00:08:32;9.00;91.92
66213;SHT31;53015;50.046;8.238;2023-04-25T00:10:58;9.08;91.40
66213;SHT31;53015;50.046;8.238;2023-04-25T00:13:24;9.01;91.91
66213;SHT31;53015;50.046;8.238;2023-04-25T00:15:51;9.04;92.04
66213;SHT31;53015;50.046;8.238;2023-04-25T00:18:16;9.05;92.29
66213;SHT31;53015;50.046;8.238;2023-04-25T00:20:42;8.94;92.25
66213;SHT31;53015;50.046;8.238;2023-04-25T00:23:07;8.99;92.72
66213;SHT31;53015;50.046;8.238;2023-04-25T00:25:33;9.01;92.86
66213;SHT31;53015;50.046;8.238;2023-04-25T00:27:58;9.03;93.21
66213;SHT31;53015;50.046;8.238;2023-04-25T00:30:23;8.93;92.90
66213;SHT31;53015;50.046;8.238;2023-04-25T00:32:50;8.99;92.83
66213;SHT31;53015;50.046;8.238;2023-04-25T00:35:16;8.88;93.18
66213;SHT31;53015;50.046;8.238;2023-04-25T00:37:42;8.86;93.51
66213;SHT31;53015;50.046;8.238;2023-04-25T00:40:08;8.73;93.97
66213;SHT31;53015;50.046;8.238;2023-04-25T00:42:34;8.70;93.91
66213;SHT31;53015;50.046;8.238;2023-04-25T00:45:00;8.83;93.48
66213;SHT31;53015;50.046;8.238;2023-04-25T00:47:27;8.94;93.55
66213;SHT31;53015;50.046;8.238;2023-04-25T00:49:54;9.00;93.62
66213;SHT31;53015;50.046;8.238;2023-04-25T00:52:20;9.05;93.73
66213;SHT31;53015;50.046;8.238;2023-04-25T00:54:45;9.25;93.73
66213;SHT31;53015;50.046;8.238;2023-04-25T00:57:14;9.36;93.19
66213;SHT31;53015;50.046;8.238;2023-04-25T00:59:44;9.25;93.24
66213;SHT31;53015;50.046;8.238;2023-04-25T01:02:10;9.36;93.10
66213;SHT31;53015;50.046;8.238;2023-04-25T01:04:36;9.30;93.08
66213;SHT31;53015;50.046;8.238;2023-04-25T01:07:03;9.34;92.26
66213;SHT31;53015;50.046;8.238;2023-04-25T01:09:30;9.38;92.54
66213;SHT31;53015;50.046;8.238;2023-04-25T01:11:55;9.35;92.53
66213;SHT31;53015;50.046;8.238;2023-04-25T01:14:21;9.20;92.92
66213;SHT31;53015;50.046;8.238;2023-04-25T01:16:46;9.35;92.23
66213;SHT31;53015;50.046;8.238;2023-04-25T01:19:16;9.36;91.62
66213;SHT31;53015;50.046;8.238;2023-04-25T01:21:43;9.38;91.25
66213;SHT31;53015;50.046;8.238;2023-04-25T01:24:09;9.27;91.40
66213;SHT31;53015;50.046;8.238;2023-04-25T01:26:35;9.35;90.72
66213;SHT31;53015;50.046;8.238;2023-04-25T01:29:02;9.39;91.06
66213;SHT31;53015;50.046;8.238;2023-04-25T01:31:28;9.41;91.51
66213;SHT31;53015;50.046;8.238;2023-04-25T01:33:55;9.39;91.23
66213;SHT31;53015;50.046;8.238;2023-04-25T01:36:21;9.41;90.93
66213;SHT31;53015;50.046;8.238;2023-04-25T01:38:48;9.43;90.12
66213;SHT31;53015;50.046;8.238;2023-04-25T01:41:14;9.32;89.94
66213;SHT31;53015;50.046;8.238;2023-04-25T01:43:40;9.28;89.26
66213;SHT31;53015;50.046;8.238;2023-04-25T01:46:06;9.31;90.33
66213;SHT31;53015;50.046;8.238;2023-04-25T01:48:31;9.28;91.12
66213;SHT31;53015;50.046;8.238;2023-04-25T01:50:57;9.18;90.98
66213;SHT31;53015;50.046;8.238;2023-04-25T01:53:23;9.10;90.44
66213;SHT31;53015;50.046;8.238;2023-04-25T01:55:50;8.94;91.39
66213;SHT31;53015;50.046;8.238;2023-04-25T01:58:16;8.83;90.42
66213;SHT31;53015;50.046;8.238;2023-04-25T02:00:41;8.72;90.36
66213;SHT31;53015;50.046;8.238;2023-04-25T02:03:07;8.87;91.34
66213;SHT31;53015;50.046;8.238;2023-04-25T02:05:36;8.91;91.54
66213;SHT31;53015;50.046;8.238;2023-04-25T02:08:03;8.96;91.34
66213;SHT31;53015;50.046;8.238;2023-04-25T02:10:28;8.96;91.06
66213;SHT31;53015;50.046;8.238;2023-04-25T02:12:56;8.96;91.81
66213;SHT31;53015;50.046;8.238;2023-04-25T02:15:22;8.93;92.39
66213;SHT31;53015;50.046;8.238;2023-04-25T02:17:47;8.94;92.50
66213;SHT31;53015;50.046;8.238;2023-04-25T02:20:13;8.93;92.62
66213;SHT31;53015;50.046;8.238;2023-04-25T02:22:39;8.87;93.05
66213;SHT31;53015;50.046;8.238;2023-04-25T02:25:05;8.90;93.09
66213;SHT31;53015;50.046;8.238;2023-04-25T02:27:31;8.87;92.82
66213;SHT31;53015;50.046;8.238;2023-04-25T02:29:58;8.88;93.27
66213;SHT31;53015;50.046;8.238;2023-04-25T02:32:23;8.88;92.86
66213;SHT31;53015;50.046;8.238;2023-04-25T02:34:49;8.94;92.76
66213;SHT31;53015;50.046;8.238;2023-04-25T02:37:14;8.84;92.99
66213;SHT31;53015;50.046;8.238;2023-04-25T02:39:40;8.65;92.18
66213;SHT31;53015;50.046;8.238;2023-04-25T02:42:05;8.49;92.43
66213;SHT31;53015;50.046;8.238;2023-04-25T02:44:31;8.58;93.13
66213;SHT31;53015;50.046;8.238;2023-04-25T02:46:58;8.55;92.61
66213;SHT31;53015;50.046;8.238;2023-04-25T02:49:23;8.69;92.51
66213;SHT31;53015;50.046;8.238;2023-04-25T02:51:49;8.70;91.70
66213;SHT31;53015;50.046;8.238;2023-04-25T02:54:14;8.63;91.96
66213;SHT31;53015;50.046;8.238;2023-04-25T02:56:40;8.60;91.27
66213;SHT31;53015;50.046;8.238;2023-04-25T02:59:05;8.59;92.92
66213;SHT31;53015;50.046;8.238;2023-04-25T03:01:31;8.45;92.32
66213;SHT31;53015;50.046;8.238;2023-04-25T03:03:57;8.45;92.38
66213;SHT31;53015;50.046;8.238;2023-04-25T03:06:23;8.52;91.78
66213;SHT31;53015;50.046;8.238;2023-04-25T03:08:48;8.56;91.42
66213;SHT31;53015;50.046;8.238;2023-04-25T03:11:14;8.50;92.30
66213;SHT31;53015;50.046;8.238;2023-04-25T03:13:39;8.59;91.79
66213;SHT31;53015;50.046;8.238;2023-04-25T03:16:05;8.67;90.58
66213;SHT31;53015;50.046;8.238;2023-04-25T03:18:31;8.31;90.18
66213;SHT31;53015;50.046;8.238;2023-04-25T03:20:58;8.44;91.05
66213;SHT31;53015;50.046;8.238;2023-04-25T03:23:23;8.15;91.09
66213;SHT31;53015;50.046;8.238;2023-04-25T03:25:49;8.07;90.76
66213;SHT31;53015;50.046;8.238;2023-04-25T03:28:14;7.98;91.17
66213;SHT31;53015;50.046;8.238;2023-04-25T03:30:40;7.91;91.52
66213;SHT31;53015;50.046;8.238;2023-04-25T03:33:05;7.79;91.80
66213;SHT31;53015;50.046;8.238;2023-04-25T03:35:31;7.70;91.71
66213;SHT31;53015;50.046;8.238;2023-04-25T03:37:58;7.82;91.84
66213;SHT31;53015;50.046;8.238;2023-04-25T03:40:23;7.95;91.90
66213;SHT31;53015;50.046;8.238;2023-04-25T03:42:49;8.07;92.43
66213;SHT31;53015;50.046;8.238;2023-04-25T03:45:15;7.93;89.80
66213;SHT31;53015;50.046;8.238;2023-04-25T03:47:40;7.87;87.71
66213;SHT31;53015;50.046;8.238;2023-04-25T03:50:06;7.84;87.99
66213;SHT31;53015;50.046;8.238;2023-04-25T03:52:32;7.90;88.36
66213;SHT31;53015;50.046;8.238;2023-04-25T03:54:59;7.63;89.70
66213;SHT31;53015;50.046;8.238;2023-04-25T03:57:24;7.61;88.53
66213;SHT31;53015;50.046;8.238;2023-04-25T03:59:49;7.52;88.33
66213;SHT31;53015;50.046;8.238;2023-04-25T04:02:16;7.69;88.83
66213;SHT31;53015;50.046;8.238;2023-04-25T04:04:42;7.69;86.84
66213;SHT31;53015;50.046;8.238;2023-04-25T04:07:08;7.69;84.50
66213;SHT31;53015;50.046;8.238;2023-04-25T04:09:34;7.66;84.53
66213;SHT31;53015;50.046;8.238;2023-04-25T04:12:01;7.62;84.72
66213;SHT31;53015;50.046;8.238;2023-04-25T04:14:26;7.61;84.10
66213;SHT31;53015;50.046;8.238;2023-04-25T04:16:52;7.59;83.77
66213;SHT31;53015;50.046;8.238;2023-04-25T04:19:17;7.56;84.46
66213;SHT31;53015;50.046;8.238;2023-04-25T04:21:43;7.54;85.25
66213;SHT31;53015;50.046;8.238;2023-04-25T04:24:08;7.63;85.27
66213;SHT31;53015;50.046;8.238;2023-04-25T04:26:34;7.89;85.22
66213;SHT31;53015;50.046;8.238;2023-04-25T04:29:00;7.87;85.73
66213;SHT31;53015;50.046;8.238;2023-04-25T04:31:26;7.52;87.06
66213;SHT31;53015;50.046;8.238;2023-04-25T04:33:51;7.31;87.44
66213;SHT31;53015;50.046;8.238;2023-04-25T04:36:17;7.36;85.16
66213;SHT31;53015;50.046;8.238;2023-04-25T04:38:42;7.28;84.32
66213;SHT31;53015;50.046;8.238;2023-04-25T04:41:08;7.31;87.00
66213;SHT31;53015;50.046;8.238;2023-04-25T04:43:33;7.28;85.96
66213;SHT31;53015;50.046;8.238;2023-04-25T04:46:01;7.14;86.11
66213;SHT31;53015;50.046;8.238;2023-04-25T04:48:27;6.96;86.12
66213;SHT31;53015;50.046;8.238;2023-04-25T04:50:52;7.01;85.80
66213;SHT31;53015;50.046;8.238;2023-04-25T04:53:18;7.11;84.35
66213;SHT31;53015;50.046;8.238;2023-04-25T04:55:43;7.08;84.92
66213;SHT31;53015;50.046;8.238;2023-04-25T04:58:09;7.08;85.74
66213;SHT31;53015;50.046;8.238;2023-04-25T05:00:34;7.17;85.25
66213;SHT31;53015;50.046;8.238;2023-04-25T05:03:01;7.15;84.41
66213;SHT31;53015;50.046;8.238;2023-04-25T05:05:27;7.29;84.21
66213;SHT31;53015;50.046;8.238;2023-04-25T05:07:52;7.22;84.10
66213;SHT31;53015;50.046;8.238;2023-04-25T05:10:18;7.19;84.44
66213;SHT31;53015;50.046;8.238;2023-04-25T05:12:44;7.38;83.56
66213;SHT31;53015;50.046;8.238;2023-04-25T05:15:10;7.51;83.98
66213;SHT31;53015;50.046;8.238;2023-04-25T05:17:35;7.63;83.67
66213;SHT31;53015;50.046;8.238;2023-04-25T05:20:03;7.70;83.94
66213;SHT31;53015;50.046;8.238;2023-04-25T05:22:28;7.70;82.81
66213;SHT31;53015;50.046;8.238;2023-04-25T05:24:54;7.90;83.36
66213;SHT31;53015;50.046;8.238;2023-04-25T05:27:19;7.84;82.12
66213;SHT31;53015;50.046;8.238;2023-04-25T05:29:45;7.72;81.38
66213;SHT31;53015;50.046;8.238;2023-04-25T05:32:10;7.67;82.53
66213;SHT31;53015;50.046;8.238;2023-04-25T05:34:36;7.55;83.04
66213;SHT31;53015;50.046;8.238;2023-04-25T05:37:03;7.46;83.83
66213;SHT31;53015;50.046;8.238;2023-04-25T05:39:28;7.58;83.57
66213;SHT31;53015;50.046;8.238;2023-04-25T05:41:54;7.54;83.28
66213;SHT31;53015;50.046;8.238;2023-04-25T05:44:20;7.56;83.19
66213;SHT31;53015;50.046;8.238;2023-04-25T05:46:46;7.74;83.86
66213;SHT31;53015;50.046;8.238;2023-04-25T05:49:11;7.89;82.85
66213;SHT31;53015;50.046;8.238;2023-04-25T05:51:37;7.98;80.89
66213;SHT31;53015;50.046;8.238;2023-04-25T05:54:04;8.11;81.07
66213;SHT31;53015;50.046;8.238;2023-04-25T05:56:29;8.20;80.25
66213;SHT31;53015;50.046;8.238;2023-04-25T05:58:55;8.04;79.99
66213;SHT31;53015;50.046;8.238;2023-04-25T06:01:21;7.84;79.81
66213;SHT31;53015;50.046;8.238;2023-04-25T06:03:47;7.95;80.29
66213;SHT31;53015;50.046;8.238;2023-04-25T06:06:12;8.10;80.43
66213;SHT31;53015;50.046;8.238;2023-04-25T06:08:38;8.17;80.78
66213;SHT31;53015;50.046;8.238;2023-04-25T06:11:05;8.28;79.72
66213;SHT31;53015;50.046;8.238;2023-04-25T06:13:30;8.29;79.87
66213;SHT31;53015;50.046;8.238;2023-04-25T06:15:56;8.08;80.43
66213;SHT31;53015;50.046;8.238;2023-04-25T06:18:21;8.08;79.05
66213;SHT31;53015;50.046;8.238;2023-04-25T06:20:47;8.31;79.67
66213;SHT31;53015;50.046;8.238;2023-04-25T06:23:12;8.35;79.38
66213;SHT31;53015;50.046;8.238;2023-04-25T06:25:38;8.22;79.00
66213;SHT31;53015;50.046;8.238;2023-04-25T06:28:05;8.24;79.36
66213;SHT31;53015;50.046;8.238;2023-04-25T06:30:30;8.38;81.36
66213;SHT31;53015;50.046;8.238;2023-04-25T06:32:56;8.69;80.65
66213;SHT31;53015;50.046;8.238;2023-04-25T06:35:21;8.79;79.04
66213;SHT31;53015;50.046;8.238;2023-04-25T06:37:47;8.88;79.59
66213;SHT31;53015;50.046;8.238;2023-04-25T06:40:12;9.00;77.94
66213;SHT31;53015;50.046;8.238;2023-04-25T06:42:38;9.07;79.34
66213;SHT31;53015;50.046;8.238;2023-04-25T06:45:06;8.96;77.90
66213;SHT31;53015;50.046;8.238;2023-04-25T06:47:31;9.03;78.69
66213;SHT31;53015;50.046;8.238;2023-04-25T06:49:57;9.00;76.70
66213;SHT31;53015;50.046;8.238;2023-04-25T06:52:22;9.08;77.71
66213;SHT31;53015;50.046;8.238;2023-04-25T06:54:48;9.21;78.14
66213;SHT31;53015;50.046;8.238;2023-04-25T06:57:13;9.28;76.35
66213;SHT31;53015;50.046;8.238;2023-04-25T06:59:39;9.34;76.33
66213;SHT31;53015;50.046;8.238;2023-04-25T07:02:05;9.45;75.97
66213;SHT31;53015;50.046;8.238;2023-04-25T07:04:31;9.68;75.36
66213;SHT31;53015;50.046;8.238;2023-04-25T07:06:57;9.61;76.08
66213;SHT31;53015;50.046;8.238;2023-04-25T07:09:22;9.87;75.79
66213;SHT31;53015;50.046;8.238;2023-04-25T07:11:48;9.82;75.00
66213;SHT31;53015;50.046;8.238;2023-04-25T07:14:13;9.80;75.01
66213;SHT31;53015;50.046;8.238;2023-04-25T07:16:39;9.78;73.64
66213;SHT31;53015;50.046;8.238;2023-04-25T07:19:06;10.04;74.56
66213;SHT31;53015;50.046;8.238;2023-04-25T07:21:31;9.94;73.28
66213;SHT31;53015;50.046;8.238;2023-04-25T07:23:57;9.91;72.25
66213;SHT31;53015;50.046;8.238;2023-04-25T07:26:22;9.66;71.54
66213;SHT31;53015;50.046;8.238;2023-04-25T07:28:48;9.61;73.64
66213;SHT31;53015;50.046;8.238;2023-04-25T07:31:13;9.42;73.50
66213;SHT31;53015;50.046;8.238;2023-04-25T07:33:39;9.56;72.57
66213;SHT31;53015;50.046;8.238;2023-04-25T07:36:07;9.52;73.78
66213;SHT31;53015;50.046;8.238;2023-04-25T07:38:32;9.59;72.02
66213;SHT31;53015;50.046;8.238;2023-04-25T07:40:58;9.79;72.27
66213;SHT31;53015;50.046;8.238;2023-04-25T07:43:24;9.83;72.21
66213;SHT31;53015;50.046;8.238;2023-04-25T07:45:49;9.70;72.20
66213;SHT31;53015;50.046;8.238;2023-04-25T07:48:16;9.78;71.28
66213;SHT31;53015;50.046;8.238;2023-04-25T07:50:42;10.18;72.54
66213;SHT31;53015;50.046;8.238;2023-04-25T07:53:09;10.17;71.18
66213;SHT31;53015;50.046;8.238;2023-04-25T07:55:35;10.04;71.10
66213;SHT31;53015;50.046;8.238;2023-04-25T07:58:00;9.97;70.37
66213;SHT31;53015;50.046;8.238;2023-04-25T08:00:26;9.94;70.92
66213;SHT31;53015;50.046;8.238;2023-04-25T08:02:51;9.90;70.30
66213;SHT31;53015;50.046;8.238;2023-04-25T08:05:17;10.10;71.07
66213;SHT31;53015;50.046;8.238;2023-04-25T08:07:42;10.01;69.84
66213;SHT31;53015;50.046;8.238;2023-04-25T08:10:09;10.14;69.69
66213;SHT31;53015;50.046;8.238;2023-04-25T08:12:35;10.34;69.83
66213;SHT31;53015;50.046;8.238;2023-04-25T08:15:00;10.28;70.16
66213;SHT31;53015;50.046;8.238;2023-04-25T08:17:26;9.83;69.53
66213;SHT31;53015;50.046;8.238;2023-04-25T08:19:52;10.17;69.80
66213;SHT31;53015;50.046;8.238;2023-04-25T08:22:17;10.11;69.27
66213;SHT31;53015;50.046;8.238;2023-04-25T08:24:42;10.21;68.35
66213;SHT31;53015;50.046;8.238;2023-04-25T08:27:09;10.65;69.14
66213;SHT31;53015;50.046;8.238;2023-04-25T08:29:35;10.44;66.59
66213;SHT31;53015;50.046;8.238;2023-04-25T08:32:01;10.46;66.70
66213;SHT31;53015;50.046;8.238;2023-04-25T08:34:26;10.46;66.60
66213;SHT31;53015;50.046;8.238;2023-04-25T08:36:52;10.49;66.72
66213;SHT31;53015;50.046;8.238;2023-04-25T08:39:17;10.55;68.05
66213;SHT31;53015;50.046;8.238;2023-04-25T08:41:43;10.30;67.98
66213;SHT31;53015;50.046;8.238;2023-04-25T08:44:11;10.31;66.17
66213;SHT31;53015;50.046;8.238;2023-04-25T08:46:38;10.69;66.27
66213;SHT31;53015;50.046;8.238;2023-04-25T08:49:04;10.82;67.09
66213;SHT31;53015;50.046;8.238;2023-04-25T08:51:31;10.95;65.28
66213;SHT31;53015;50.046;8.238;2023-04-25T08:54:06;10.58;66.71
66213;SHT31;53015;50.046;8.238;2023-04-25T08:56:33;10.80;66.94
66213;SHT31;53015;50.046;8.238;2023-04-25T08:58:59;10.93;67.18
66213;SHT31;53015;50.046;8.238;2023-04-25T09:01:26;10.88;67.48
66213;SHT31;53015;50.046;8.238;2023-04-25T09:03:52;10.77;69.42
66213;SHT31;53015;50.046;8.238;2023-04-25T09:06:18;10.68;67.66
66213;SHT31;53015;50.046;8.238;2023-04-25T09:08:44;10.69;66.32
66213;SHT31;53015;50.046;8.238;2023-04-25T09:11:09;10.82;65.92
66213;SHT31;53015;50.046;8.238;2023-04-25T09:13:35;11.01;66.33
66213;SHT31;53015;50.046;8.238;2023-04-25T09:16:01;11.03;65.22
66213;SHT31;53015;50.046;8.238;2023-04-25T09:18:29;10.93;66.65
66213;SHT31;53015;50.046;8.238;2023-04-25T09:20:56;10.92;66.53
66213;SHT31;53015;50.046;8.238;2023-04-25T09:23:22;11.07;65.86
66213;SHT31;53015;50.046;8.238;2023-04-25T09:25:49;11.26;65.52
66213;SHT31;53015;50.046;8.238;2023-04-25T09:28:14;11.45;63.46
66213;SHT31;53015;50.046;8.238;2023-04-25T09:30:40;11.37;62.97
66213;SHT31;53015;50.046;8.238;2023-04-25T09:33:06;11.17;62.94
66213;SHT31;53015;50.046;8.238;2023-04-25T09:35:36;11.42;62.91
66213;SHT31;53015;50.046;8.238;2023-04-25T09:38:07;11.45;63.90
66213;SHT31;53015;50.046;8.238;2023-04-25T09:40:32;11.37;63.90
66213;SHT31;53015;50.046;8.238;2023-04-25T09:42:58;11.34;62.69
66213;SHT31;53015;50.046;8.238;2023-04-25T09:45:23;11.35;63.60
66213;SHT31;53015;50.046;8.238;2023-04-25T09:47:49;11.21;63.92
66213;SHT31;53015;50.046;8.238;2023-04-25T09:50:15;11.06;63.79
66213;SHT31;53015;50.046;8.238;2023-04-25T09:52:43;11.03;64.49
66213;SHT31;53015;50.046;8.238;2023-04-25T09:55:08;11.17;64.68
66213;SHT31;53015;50.046;8.238;2023-04-25T09:57:35;11.01;65.26
66213;SHT31;53015;50.046;8.238;2023-04-25T10:00:01;11.21;65.61
66213;SHT31;53015;50.046;8.238;2023-04-25T10:02:27;11.23;65.07
66213;SHT31;53015;50.046;8.238;2023-04-25T10:04:53;11.66;66.02
66213;SHT31;53015;50.046;8.238;2023-04-25T10:07:20;11.82;63.01
66213;SHT31;53015;50.046;8.238;2023-04-25T10:09:48;12.04;62.53
66213;SHT31;53015;50.046;8.238;2023-04-25T10:12:14;11.86;61.46
66213;SHT31;53015;50.046;8.238;2023-04-25T10:14:40;11.50;61.98
66213;SHT31;53015;50.046;8.238;2023-04-25T10:17:06;11.42;62.72
66213;SHT31;53015;50.046;8.238;2023-04-25T10:19:32;11.30;62.80
66213;SHT31;53015;50.046;8.238;2023-04-25T10:22:04;11.35;62.83
66213;SHT31;53015;50.046;8.238;2023-04-25T10:24:31;11.27;63.16
66213;SHT31;53015;50.046;8.238;2023-04-25T10:26:58;11.07;62.44
66213;SHT31;53015;50.046;8.238;2023-04-25T10:29:24;10.92;61.14
66213;SHT31;53015;50.046;8.238;2023-04-25T10:31:50;10.92;62.16
66213;SHT31;53015;50.046;8.238;2023-04-25T10:34:16;10.92;62.75
66213;SHT31;53015;50.046;8.238;2023-04-25T10:36:42;10.96;63.82
66213;SHT31;53015;50.046;8.238;2023-04-25T10:39:07;10.92;62.39
66213;SHT31;53015;50.046;8.238;2023-04-25T10:41:45;11.00;62.78
66213;SHT31;53015;50.046;8.238;2023-04-25T10:44:13;11.01;63.31
66213;SHT31;53015;50.046;8.238;2023-04-25T10:46:39;11.18;61.61
66213;SHT31;53015;50.046;8.238;2023-04-25T10:49:04;11.27;61.81
66213;SHT31;53015;50.046;8.238;2023-04-25T10:51:31;11.32;60.71
66213;SHT31;53015;50.046;8.238;2023-04-25T10:53:58;11.24;60.57
66213;SHT31;53015;50.046;8.238;2023-04-25T10:56:26;11.24;60.50
66213;SHT31;53015;50.046;8.238;2023-04-25T10:58:51;11.14;60.66
66213;SHT31;53015;50.046;8.238;2023-04-25T11:01:21;11.42;60.72
66213;SHT31;53015;50.046;8.238;2023-04-25T11:03:57;11.55;60.39
66213;SHT31;53015;50.046;8.238;2023-04-25T11:06:27;11.48;61.01
66213;SHT31;53015;50.046;8.238;2023-04-25T11:08:54;11.45;59.81
66213;SHT31;53015;50.046;8.238;2023-04-25T11:11:20;11.55;60.97
66213;SHT31;53015;50.046;8.238;2023-04-25T11:13:48;11.58;59.51
66213;SHT31;53015;50.046;8.238;2023-04-25T11:16:14;11.42;60.89
66213;SHT31;53015;50.046;8.238;2023-04-25T11:18:42;11.32;61.50
66213;SHT31;53015;50.046;8.238;2023-04-25T11:21:08;10.97;62.14
66213;SHT31;53015;50.046;8.238;2023-04-25T11:23:34;11.04;61.77
66213;SHT31;53015;50.046;8.238;2023-04-25T11:25:59;11.04;61.44
66213;SHT31;53015;50.046;8.238;2023-04-25T11:28:25;11.24;60.72
66213;SHT31;53015;50.046;8.238;2023-04-25T11:30:51;11.38;61.74
66213;SHT31;53015;50.046;8.238;2023-04-25T11:33:17;11.09;61.02
66213;SHT31;53015;50.046;8.238;2023-04-25T11:35:44;11.31;61.04
66213;SHT31;53015;50.046;8.238;2023-04-25T11:38:09;11.23;60.42
66213;SHT31;53015;50.046;8.238;2023-04-25T11:40:35;11.14;61.18
66213;SHT31;53015;50.046;8.238;2023-04-25T11:43:01;11.14;60.58
66213;SHT31;53015;50.046;8.238;2023-04-25T11:45:27;11.20;61.23
66213;SHT31;53015;50.046;8.238;2023-04-25T11:47:53;11.18;61.07
66213;SHT31;53015;50.046;8.238;2023-04-25T11:50:19;11.01;61.88
66213;SHT31;53015;50.046;8.238;2023-04-25T11:52:47;11.01;62.40
66213;SHT31;53015;50.046;8.238;2023-04-25T11:55:13;11.18;61.07
66213;SHT31;53015;50.046;8.238;2023-04-25T11:57:40;11.14;61.72
66213;SHT31;53015;50.046;8.238;2023-04-25T12:00:11;11.24;60.17
66213;SHT31;53015;50.046;8.238;2023-04-25T12:02:37;11.38;58.78
66213;SHT31;53015;50.046;8.238;2023-04-25T12:05:06;11.52;58.55
66213;SHT31;53015;50.046;8.238;2023-04-25T12:07:32;11.35;58.86
66213;SHT31;53015;50.046;8.238;2023-04-25T12:09:58;11.59;57.96
66213;SHT31;53015;50.046;8.238;2023-04-25T12:12:27;11.72;58.59
66213;SHT31;53015;50.046;8.238;2023-04-25T12:14:52;11.68;57.33
66213;SHT31;53015;50.046;8.238;2023-04-25T12:17:18;11.97;58.65
66213;SHT31;53015;50.046;8.238;2023-04-25T12:19:46;11.96;56.82
66213;SHT31;53015;50.046;8.238;2023-04-25T12:22:22;11.97;57.30
66213;SHT31;53015;50.046;8.238;2023-04-25T12:24:48;12.42;56.50
66213;SHT31;53015;50.046;8.238;2023-04-25T12:27:16;12.71;54.34
66213;SHT31;53015;50.046;8.238;2023-04-25T12:29:50;13.46;55.01
66213;SHT31;53015;50.046;8.238;2023-04-25T12:32:16;13.68;55.06
66213;SHT31;53015;50.046;8.238;2023-04-25T12:34:42;13.13;54.26
66213;SHT31;53015;50.046;8.238;2023-04-25T12:37:07;12.71;54.18
66213;SHT31;53015;50.046;8.238;2023-04-25T12:39:33;12.29;56.21
66213;SHT31;53015;50.046;8.238;2023-04-25T12:41:58;12.09;56.01
66213;SHT31;53015;50.046;8.238;2023-04-25T12:44:25;11.90;56.86
66213;SHT31;53015;50.046;8.238;2023-04-25T12:46:50;11.78;56.59
66213;SHT31;53015;50.046;8.238;2023-04-25T12:49:16;11.81;57.66
66213;SHT31;53015;50.046;8.238;2023-04-25T12:51:41;11.97;57.29
66213;SHT31;53015;50.046;8.238;2023-04-25T12:54:08;12.19;56.86
66213;SHT31;53015;50.046;8.238;2023-04-25T12:56:33;12.47;55.70
66213;SHT31;53015;50.046;8.238;2023-04-25T12:58:59;12.44;56.53
66213;SHT31;53015;50.046;8.238;2023-04-25T13:01:26;12.34;56.89
66213;SHT31;53015;50.046;8.238;2023-04-25T13:03:52;12.65;55.10
66213;SHT31;53015;50.046;8.238;2023-04-25T13:06:18;12.48;54.07
66213;SHT31;53015;50.046;8.238;2023-04-25T13:08:44;12.91;53.91
66213;SHT31;53015;50.046;8.238;2023-04-25T13:11:09;13.37;53.61
66213;SHT31;53015;50.046;8.238;2023-04-25T13:13:35;13.48;53.63
66213;SHT31;53015;50.046;8.238;2023-04-25T13:16:01;13.64;53.00
66213;SHT31;53015;50.046;8.238;2023-04-25T13:18:28;13.48;53.46
66213;SHT31;53015;50.046;8.238;2023-04-25T13:20:53;13.37;53.50
66213;SHT31;53015;50.046;8.238;2023-04-25T13:23:19;12.96;52.63
66213;SHT31;53015;50.046;8.238;2023-04-25T13:25:45;13.20;53.87
66213;SHT31;53015;50.046;8.238;2023-04-25T13:28:10;13.22;55.24
66213;SHT31;53015;50.046;8.238;2023-04-25T13:30:36;13.60;53.51
66213;SHT31;53015;50.046;8.238;2023-04-25T13:33:01;13.85;53.05
66213;SHT31;53015;50.046;8.238;2023-04-25T13:35:29;13.44;51.70
66213;SHT31;53015;50.046;8.238;2023-04-25T13:37:55;13.00;52.47
66213;SHT31;53015;50.046;8.238;2023-04-25T13:40:20;12.92;54.79
66213;SHT31;53015;50.046;8.238;2023-04-25T13:42:46;12.85;53.83
66213;SHT31;53015;50.046;8.238;2023-04-25T13:45:11;12.41;54.45
66213;SHT31;53015;50.046;8.238;2023-04-25T13:47:37;12.29;53.71
66213;SHT31;53015;50.046;8.238;2023-04-25T13:50:03;12.34;54.53
66213;SHT31;53015;50.046;8.238;2023-04-25T13:52:30;12.27;55.46
66213;SHT31;53015;50.046;8.238;2023-04-25T13:54:56;11.97;55.47
66213;SHT31;53015;50.046;8.238;2023-04-25T13:57:21;11.83;55.15
66213;SHT31;53015;50.046;8.238;2023-04-25T13:59:47;11.79;55.08
66213;SHT31;53015;50.046;8.238;2023-04-25T14:02:12;11.68;54.94
66213;SHT31;53015;50.046;8.238;2023-04-25T14:04:38;11.87;55.66
66213;SHT31;53015;50.046;8.238;2023-04-25T14:07:04;11.99;53.94
66213;SHT31;53015;50.046;8.238;2023-04-25T14:09:30;11.89;55.07
66213;SHT31;53015;50.046;8.238;2023-04-25T14:11:56;11.73;54.32
66213;SHT31;53015;50.046;8.238;2023-04-25T14:14:22;11.76;53.62
66213;SHT31;53015;50.046;8.238;2023-04-25T14:16:48;12.00;53.34
66213;SHT31;53015;50.046;8.238;2023-04-25T14:19:14;12.41;53.27
66213;SHT31;53015;50.046;8.238;2023-04-25T14:21:39;12.21;53.55
66213;SHT31;53015;50.046;8.238;2023-04-25T14:24:05;11.86;54.11
66213;SHT31;53015;50.046;8.238;2023-04-25T14:26:33;11.71;54.69
66213;SHT31;53015;50.046;8.238;2023-04-25T14:28:58;11.58;54.03
66213;SHT31;53015;50.046;8.238;2023-04-25T14:31:24;11.65;55.59
66213;SHT31;53015;50.046;8.238;2023-04-25T14:33:49;11.75;54.97
66213;SHT31;53015;50.046;8.238;2023-04-25T14:36:15;11.78;54.46
66213;SHT31;53015;50.046;8.238;2023-04-25T14:38:40;11.78;54.68
66213;SHT31;53015;50.046;8.238;2023-04-25T14:41:06;11.69;53.71
66213;SHT31;53015;50.046;8.238;2023-04-25T14:43:33;11.66;53.69
66213;SHT31;53015;50.046;8.238;2023-04-25T14:45:58;11.65;53.84
66213;SHT31;53015;50.046;8.238;2023-04-25T14:48:24;11.71;54.44
66213;SHT31;53015;50.046;8.238;2023-04-25T14:50:49;11.87;53.97
66213;SHT31;53015;50.046;8.238;2023-04-25T14:53:15;12.04;53.49
66213;SHT31;53015;50.046;8.238;2023-04-25T14:55:40;12.14;53.71
66213;SHT31;53015;50.046;8.238;2023-04-25T14:58:06;12.24;54.46
66213;SHT31;53015;50.046;8.238;2023-04-25T15:00:33;12.07;53.52
66213;SHT31;53015;50.046;8.238;2023-04-25T15:02:58;12.00;53.20
66213;SHT31;53015;50.046;8.238;2023-04-25T15:05:24;12.00;53.18
66213;SHT31;53015;50.046;8.238;2023-04-25T15:07:50;11.86;52.59
66213;SHT31;53015;50.046;8.238;2023-04-25T15:10:17;11.97;52.61
66213;SHT31;53015;50.046;8.238;2023-04-25T15:12:43;11.90;52.58
66213;SHT31;53015;50.046;8.238;2023-04-25T15:15:09;12.09;52.50
66213;SHT31;53015;50.046;8.238;2023-04-25T15:17:37;11.89;51.93
66213;SHT31;53015;50.046;8.238;2023-04-25T15:20:03;11.87;51.82
66213;SHT31;53015;50.046;8.238;2023-04-25T15:22:28;11.68;53.03
66213;SHT31;53015;50.046;8.238;2023-04-25T15:24:54;12.00;52.16
66213;SHT31;53015;50.046;8.238;2023-04-25T15:27:20;12.30;51.75
66213;SHT31;53015;50.046;8.238;2023-04-25T15:29:46;12.58;50.63